sensor_id;sensor_type;location;lat;lon;timestamp;P1;durP1;ratioP1;P2;durP2;ratioP2
40150;SDS011;25866;52.420;10.640;2023-05-19T00:01:07;5.85;;;2.40;;
40150;SDS011;25866;52.420;10.640;2023-05-19T00:03:34;5.70;;;2.60;;
40150;SDS011;25866;52.420;10.640;2023-05-19T00:06:05;8.50;;;2.45;;
40150;SDS011;25866;52.420;10.640;2023-05-19T00:08:34;9.35;;;2.70;;
40150;SDS011;25866;52.420;10.640;2023-05-19T00:11:02;7.18;;;2.55;;
40150;SDS011;25866;52.420;10.640;2023-05-19T00:13:28;6.57;;;3.05;;
40150;SDS011;25866;52.420;10.640;2023-05-19T00:15:55;7.80;;;3.38;;
40150;SDS011;25866;52.420;10.640;2023-05-19T00:18:21;8.63;;;3.30;;
40150;SDS011;25866;52.420;10.640;2023-05-19T00:20:47;8.48;;;3.05;;
40150;SDS011;25866;52.420;10.640;2023-05-19T00:23:13;7.05;;;2.78;;
40150;SDS011;25866;52.420;10.640;2023-05-19T00:25:39;8.55;;;2.70;;
40150;SDS011;25866;52.420;10.640;2023-05-19T00:28:05;8.02;;;3.20;;
40150;SDS011;25866;52.420;10.640;2023-05-19T00:30:30;9.70;;;2.90;;
40150;SDS011;25866;52.420;10.640;2023-05-19T00:32:56;10.02;;;3.03;;
40150;SDS011;25866;52.420;10.640;2023-05-19T00:35:22;6.15;;;2.72;;
40150;SDS011;25866;52.420;10.640;2023-05-19T00:37:49;8.40;;;2.65;;
40150;SDS011;25866;52.420;10.640;2023-05-19T00:40:15;9.07;;;3.22;;
40150;SDS011;25866;52.420;10.640;2023-05-19T00:42:41;6.50;;;2.75;;
40150;SDS011;25866;52.420;10.640;2023-05-19T00:45:06;8.07;;;2.55;;
40150;SDS011;25866;52.420;10.640;2023-05-19T00:47:33;10.88;;;2.83;;
40150;SDS011;25866;52.420;10.640;2023-05-19T00:49:58;8.65;;;3.00;;
40150;SDS011;25866;52.420;10.640;2023-05-19T00:52:24;8.90;;;2.80;;
40150;SDS011;25866;52.420;10.640;2023-05-19T00:54:52;5.72;;;2.80;;
40150;SDS011;25866;52.420;10.640;2023-05-19T00:57:19;8.30;;;2.53;;
40150;SDS011;25866;52.420;10.640;2023-05-19T00:59:48;13.75;;;2.63;;
40150;SDS011;25866;52.420;10.640;2023-05-19T01:02:14;10.25;;;2.80;;
40150;SDS011;25866;52.420;10.640;2023-05-19T01:04:40;9.18;;;2.60;;
40150;SDS011;25866;52.420;10.640;2023-05-19T01:07:07;7.70;;;2.35;;
40150;SDS011;25866;52.420;10.640;2023-05-19T01:09:34;8.20;;;2.67;;
40150;SDS011;25866;52.420;10.640;2023-05-19T01:12:01;10.85;;;2.60;;
40150;SDS011;25866;52.420;10.640;2023-05-19T01:14:27;11.20;;;3.00;;
40150;SDS011;25866;52.420;10.640;2023-05-19T01:16:57;6.63;;;2.53;;
40150;SDS011;25866;52.420;10.640;2023-05-19T01:30:32;11.05;;;2.80;;
40150;SDS011;25866;52.420;10.640;2023-05-19T01:33:05;7.15;;;2.38;;
40150;SDS011;25866;52.420;10.640;2023-05-19T01:35:34;7.85;;;2.92;;
40150;SDS011;25866;52.420;10.640;2023-05-19T01:38:01;7.95;;;2.70;;
40150;SDS011;25866;52.420;10.640;2023-05-19T01:40:28;7.63;;;2.55;;
40150;SDS011;25866;52.420;10.640;2023-05-19T01:42:57;7.30;;;2.22;;
40150;SDS011;25866;52.420;10.640;2023-05-19T01:45:25;8.27;;;2.47;;
40150;SDS011;25866;52.420;10.640;2023-05-19T01:47:54;8.27;;;2.90;;
40150;SDS011;25866;52.420;10.640;2023-05-19T01:50:21;8.63;;;2.90;;
40150;SDS011;25866;52.420;10.640;2023-05-19T01:52:47;6.82;;;2.55;;
40150;SDS011;25866;52.420;10.640;2023-05-19T01:55:13;8.00;;;2.75;;
40150;SDS011;25866;52.420;10.640;2023-05-19T01:57:54;10.10;;;2.92;;
40150;SDS011;25866;52.420;10.640;2023-05-19T02:10:40;8.18;;;2.70;;
40150;SDS011;25866;52.420;10.640;2023-05-19T02:13:10;8.48;;;2.70;;
40150;SDS011;25866;52.420;10.640;2023-05-19T02:15:40;7.40;;;2.70;;
40150;SDS011;25866;52.420;10.640;2023-05-19T02:18:07;9.80;;;3.03;;
40150;SDS011;25866;52.420;10.640;2023-05-19T02:20:36;9.18;;;2.70;;
40150;SDS011;25866;52.420;10.640;2023-05-19T02:23:03;9.07;;;2.80;;
40150;SDS011;25866;52.420;10.640;2023-05-19T02:25:29;6.05;;;3.17;;
40150;SDS011;25866;52.420;10.640;2023-05-19T02:27:56;8.27;;;2.80;;
40150;SDS011;25866;52.420;10.640;2023-05-19T02:30:22;5.20;;;2.40;;
40150;SDS011;25866;52.420;10.640;2023-05-19T02:32:48;8.32;;;2.65;;
40150;SDS011;25866;52.420;10.640;2023-05-19T02:35:14;6.85;;;2.28;;
40150;SDS011;25866;52.420;10.640;2023-05-19T02:37:39;10.63;;;2.70;;
40150;SDS011;25866;52.420;10.640;2023-05-19T02:40:05;7.03;;;2.72;;
40150;SDS011;25866;52.420;10.640;2023-05-19T02:42:32;7.60;;;2.90;;
40150;SDS011;25866;52.420;10.640;2023-05-19T02:44:58;9.48;;;2.65;;
40150;SDS011;25866;52.420;10.640;2023-05-19T02:47:24;8.13;;;3.10;;
40150;SDS011;25866;52.420;10.640;2023-05-19T02:49:50;8.65;;;2.75;;
40150;SDS011;25866;52.420;10.640;2023-05-19T02:52:16;11.48;;;3.03;;
40150;SDS011;25866;52.420;10.640;2023-05-19T02:54:41;6.97;;;2.27;;
40150;SDS011;25866;52.420;10.640;2023-05-19T02:57:07;6.35;;;2.35;;
40150;SDS011;25866;52.420;10.640;2023-05-19T02:59:33;7.80;;;2.72;;
40150;SDS011;25866;52.420;10.640;2023-05-19T03:02:00;7.13;;;2.60;;
40150;SDS011;25866;52.420;10.640;2023-05-19T03:04:26;7.32;;;3.00;;
40150;SDS011;25866;52.420;10.640;2023-05-19T03:06:53;7.70;;;2.77;;
40150;SDS011;25866;52.420;10.640;2023-05-19T03:09:19;11.03;;;3.30;;
40150;SDS011;25866;52.420;10.640;2023-05-19T03:11:45;9.15;;;2.80;;
40150;SDS011;25866;52.420;10.640;2023-05-19T03:14:11;8.38;;;2.95;;
40150;SDS011;25866;52.420;10.640;2023-05-19T03:16:38;8.63;;;3.03;;
40150;SDS011;25866;52.420;10.640;2023-05-19T03:19:07;9.30;;;2.53;;
40150;SDS011;25866;52.420;10.640;2023-05-19T03:21:33;8.67;;;2.90;;
40150;SDS011;25866;52.420;10.640;2023-05-19T03:24:02;7.80;;;2.88;;
40150;SDS011;25866;52.420;10.640;2023-05-19T03:26:28;13.35;;;3.67;;
40150;SDS011;25866;52.420;10.640;2023-05-19T03:28:54;9.40;;;2.87;;
40150;SDS011;25866;52.420;10.640;2023-05-19T03:31:20;7.05;;;2.58;;
40150;SDS011;25866;52.420;10.640;2023-05-19T03:33:45;9.60;;;3.10;;
40150;SDS011;25866;52.420;10.640;2023-05-19T03:36:11;10.27;;;3.27;;
40150;SDS011;25866;52.420;10.640;2023-05-19T03:38:37;6.93;;;3.07;;
40150;SDS011;25866;52.420;10.640;2023-05-19T03:41:03;8.40;;;2.80;;
40150;SDS011;25866;52.420;10.640;2023-05-19T03:43:29;6.53;;;2.83;;
40150;SDS011;25866;52.420;10.640;2023-05-19T03:45:55;7.93;;;2.63;;
40150;SDS011;25866;52.420;10.640;2023-05-19T03:48:20;4.20;;;2.60;;
40150;SDS011;25866;52.420;10.640;2023-05-19T03:50:46;7.00;;;2.90;;
40150;SDS011;25866;52.420;10.640;2023-05-19T03:53:12;10.47;;;2.87;;
40150;SDS011;25866;52.420;10.640;2023-05-19T03:55:38;5.13;;;2.50;;
40150;SDS011;25866;52.420;10.640;2023-05-19T03:58:04;5.07;;;2.77;;
40150;SDS011;25866;52.420;10.640;2023-05-19T04:00:30;9.27;;;3.00;;
40150;SDS011;25866;52.420;10.640;2023-05-19T04:02:56;6.53;;;2.80;;
40150;SDS011;25866;52.420;10.640;2023-05-19T04:05:22;8.30;;;2.57;;
40150;SDS011;25866;52.420;10.640;2023-05-19T04:07:47;6.70;;;2.60;;
40150;SDS011;25866;52.420;10.640;2023-05-19T04:10:13;6.57;;;2.77;;
40150;SDS011;25866;52.420;10.640;2023-05-19T04:12:39;6.23;;;2.60;;
40150;SDS011;25866;52.420;10.640;2023-05-19T04:15:05;15.93;;;3.40;;
40150;SDS011;25866;52.420;10.640;2023-05-19T04:17:31;7.70;;;2.93;;
40150;SDS011;25866;52.420;10.640;2023-05-19T04:19:57;9.07;;;3.23;;
40150;SDS011;25866;52.420;10.640;2023-05-19T04:22:24;5.93;;;2.77;;
40150;SDS011;25866;52.420;10.640;2023-05-19T04:24:50;8.70;;;3.00;;
40150;SDS011;25866;52.420;10.640;2023-05-19T04:27:17;7.53;;;3.08;;
40150;SDS011;25866;52.420;10.640;2023-05-19T04:29:42;9.97;;;3.10;;
40150;SDS011;25866;52.420;10.640;2023-05-19T04:32:10;8.13;;;3.20;;
40150;SDS011;25866;52.420;10.640;2023-05-19T04:34:35;10.57;;;3.03;;
40150;SDS011;25866;52.420;10.640;2023-05-19T04:37:07;6.57;;;3.27;;
40150;SDS011;25866;52.420;10.640;2023-05-19T04:39:34;7.83;;;2.83;;
40150;SDS011;25866;52.420;10.640;2023-05-19T04:42:04;7.72;;;3.10;;
40150;SDS011;25866;52.420;10.640;2023-05-19T04:44:30;8.30;;;2.83;;
40150;SDS011;25866;52.420;10.640;2023-05-19T04:46:57;7.27;;;2.97;;
40150;SDS011;25866;52.420;10.640;2023-05-19T04:49:24;11.63;;;2.97;;
40150;SDS011;25866;52.420;10.640;2023-05-19T04:51:50;9.57;;;2.70;;
40150;SDS011;25866;52.420;10.640;2023-05-19T04:54:17;9.17;;;2.70;;
40150;SDS011;25866;52.420;10.640;2023-05-19T04:56:42;11.02;;;3.10;;
40150;SDS011;25866;52.420;10.640;2023-05-19T04:59:08;6.75;;;2.65;;
40150;SDS011;25866;52.420;10.640;2023-05-19T05:01:34;9.13;;;2.97;;
40150;SDS011;25866;52.420;10.640;2023-05-19T05:04:04;6.95;;;3.00;;
40150;SDS011;25866;52.420;10.640;2023-05-19T05:06:30;11.75;;;2.38;;
40150;SDS011;25866;52.420;10.640;2023-05-19T05:08:56;9.15;;;2.72;;
40150;SDS011;25866;52.420;10.640;2023-05-19T05:11:25;7.53;;;2.88;;
40150;SDS011;25866;52.420;10.640;2023-05-19T05:13:51;7.90;;;3.08;;
40150;SDS011;25866;52.420;10.640;2023-05-19T05:16:17;8.48;;;2.58;;
40150;SDS011;25866;52.420;10.640;2023-05-19T05:18:43;7.60;;;3.08;;
40150;SDS011;25866;52.420;10.640;2023-05-19T05:21:10;8.30;;;2.83;;
40150;SDS011;25866;52.420;10.640;2023-05-19T05:23:39;6.65;;;2.40;;
40150;SDS011;25866;52.420;10.640;2023-05-19T05:26:08;6.82;;;2.50;;
40150;SDS011;25866;52.420;10.640;2023-05-19T05:28:40;7.50;;;2.40;;
40150;SDS011;25866;52.420;10.640;2023-05-19T05:31:05;8.32;;;2.15;;
40150;SDS011;25866;52.420;10.640;2023-05-19T05:33:31;6.20;;;2.67;;
40150;SDS011;25866;52.420;10.640;2023-05-19T05:35:57;9.48;;;2.45;;
40150;SDS011;25866;52.420;10.640;2023-05-19T05:38:22;6.38;;;2.10;;
40150;SDS011;25866;52.420;10.640;2023-05-19T05:40:48;8.30;;;2.20;;
40150;SDS011;25866;52.420;10.640;2023-05-19T05:43:15;7.80;;;2.10;;
40150;SDS011;25866;52.420;10.640;2023-05-19T05:45:41;9.00;;;2.30;;
40150;SDS011;25866;52.420;10.640;2023-05-19T05:48:06;8.60;;;2.10;;
40150;SDS011;25866;52.420;10.640;2023-05-19T05:50:33;7.10;;;2.25;;
40150;SDS011;25866;52.420;10.640;2023-05-19T05:52:59;10.15;;;2.53;;
40150;SDS011;25866;52.420;10.640;2023-05-19T05:55:25;6.53;;;2.13;;
40150;SDS011;25866;52.420;10.640;2023-05-19T05:57:51;6.75;;;1.90;;
40150;SDS011;25866;52.420;10.640;2023-05-19T06:00:18;5.20;;;2.15;;
40150;SDS011;25866;52.420;10.640;2023-05-19T06:02:45;7.60;;;1.85;;
40150;SDS011;25866;52.420;10.640;2023-05-19T06:05:13;5.13;;;2.08;;
40150;SDS011;25866;52.420;10.640;2023-05-19T06:07:39;8.05;;;2.10;;
40150;SDS011;25866;52.420;10.640;2023-05-19T06:10:05;10.77;;;2.42;;
40150;SDS011;25866;52.420;10.640;2023-05-19T06:12:31;8.43;;;2.08;;
40150;SDS011;25866;52.420;10.640;2023-05-19T06:14:58;11.38;;;2.72;;
40150;SDS011;25866;52.420;10.640;2023-05-19T06:17:24;7.30;;;2.22;;
40150;SDS011;25866;52.420;10.640;2023-05-19T06:19:49;9.27;;;2.00;;
40150;SDS011;25866;52.420;10.640;2023-05-19T06:22:15;7.28;;;1.90;;
40150;SDS011;25866;52.420;10.640;2023-05-19T06:24:46;5.40;;;2.03;;
40150;SDS011;25866;52.420;10.640;2023-05-19T06:27:12;7.22;;;2.10;;
40150;SDS011;25866;52.420;10.640;2023-05-19T06:29:38;4.50;;;2.10;;
40150;SDS011;25866;52.420;10.640;2023-05-19T06:32:03;6.72;;;2.10;;
40150;SDS011;25866;52.420;10.640;2023-05-19T06:34:31;6.38;;;2.20;;
40150;SDS011;25866;52.420;10.640;2023-05-19T06:36:58;6.82;;;1.85;;
40150;SDS011;25866;52.420;10.640;2023-05-19T06:39:26;8.88;;;2.42;;
40150;SDS011;25866;52.420;10.640;2023-05-19T06:41:52;6.25;;;2.15;;
40150;SDS011;25866;52.420;10.640;2023-05-19T06:44:19;5.05;;;1.90;;
40150;SDS011;25866;52.420;10.640;2023-05-19T06:46:44;5.88;;;1.92;;
40150;SDS011;25866;52.420;10.640;2023-05-19T06:49:10;7.28;;;1.90;;
40150;SDS011;25866;52.420;10.640;2023-05-19T06:51:36;8.45;;;2.03;;
40150;SDS011;25866;52.420;10.640;2023-05-19T06:54:02;6.32;;;1.92;;
40150;SDS011;25866;52.420;10.640;2023-05-19T06:56:27;9.45;;;2.10;;
40150;SDS011;25866;52.420;10.640;2023-05-19T06:58:53;4.88;;;1.92;;
40150;SDS011;25866;52.420;10.640;2023-05-19T07:01:19;3.92;;;1.75;;
40150;SDS011;25866;52.420;10.640;2023-05-19T07:03:47;4.65;;;1.70;;
40150;SDS011;25866;52.420;10.640;2023-05-19T07:06:13;6.85;;;1.90;;
40150;SDS011;25866;52.420;10.640;2023-05-19T07:08:38;3.40;;;1.67;;
40150;SDS011;25866;52.420;10.640;2023-05-19T07:11:04;10.38;;;2.35;;
40150;SDS011;25866;52.420;10.640;2023-05-19T07:13:31;7.97;;;1.73;;
40150;SDS011;25866;52.420;10.640;2023-05-19T07:15:57;7.05;;;1.90;;
40150;SDS011;25866;52.420;10.640;2023-05-19T07:18:23;8.88;;;2.00;;
40150;SDS011;25866;52.420;10.640;2023-05-19T07:20:50;9.23;;;2.17;;
40150;SDS011;25866;52.420;10.640;2023-05-19T07:23:17;7.90;;;2.38;;
40150;SDS011;25866;52.420;10.640;2023-05-19T07:25:44;5.50;;;1.92;;
40150;SDS011;25866;52.420;10.640;2023-05-19T07:28:10;7.90;;;2.00;;
40150;SDS011;25866;52.420;10.640;2023-05-19T07:30:35;6.38;;;1.90;;
40150;SDS011;25866;52.420;10.640;2023-05-19T07:33:01;5.45;;;1.90;;
40150;SDS011;25866;52.420;10.640;2023-05-19T07:35:27;4.88;;;2.08;;
40150;SDS011;25866;52.420;10.640;2023-05-19T07:37:53;6.55;;;2.20;;
40150;SDS011;25866;52.420;10.640;2023-05-19T07:40:19;4.65;;;1.88;;
40150;SDS011;25866;52.420;10.640;2023-05-19T07:42:44;6.47;;;1.90;;
40150;SDS011;25866;52.420;10.640;2023-05-19T07:45:10;6.20;;;1.92;;
40150;SDS011;25866;52.420;10.640;2023-05-19T07:47:36;5.35;;;2.13;;
40150;SDS011;25866;52.420;10.640;2023-05-19T07:50:02;5.60;;;1.60;;
40150;SDS011;25866;52.420;10.640;2023-05-19T07:52:28;4.63;;;1.80;;
40150;SDS011;25866;52.420;10.640;2023-05-19T07:54:54;5.60;;;1.70;;
40150;SDS011;25866;52.420;10.640;2023-05-19T07:57:20;4.03;;;1.90;;
40150;SDS011;25866;52.420;10.640;2023-05-19T07:59:46;5.72;;;2.03;;
40150;SDS011;25866;52.420;10.640;2023-05-19T08:02:11;5.22;;;1.92;;
40150;SDS011;25866;52.420;10.640;2023-05-19T08:04:37;6.13;;;1.98;;
40150;SDS011;25866;52.420;10.640;2023-05-19T08:07:03;8.52;;;2.00;;
40150;SDS011;25866;52.420;10.640;2023-05-19T08:09:29;3.28;;;1.90;;
40150;SDS011;25866;52.420;10.640;2023-05-19T08:11:54;6.80;;;1.95;;
40150;SDS011;25866;52.420;10.640;2023-05-19T08:14:20;5.95;;;1.80;;
40150;SDS011;25866;52.420;10.640;2023-05-19T08:16:46;5.47;;;1.75;;
40150;SDS011;25866;52.420;10.640;2023-05-19T08:19:13;7.97;;;1.75;;
40150;SDS011;25866;52.420;10.640;2023-05-19T08:21:38;8.95;;;1.88;;
40150;SDS011;25866;52.420;10.640;2023-05-19T08:24:07;7.45;;;1.60;;
40150;SDS011;25866;52.420;10.640;2023-05-19T08:26:33;4.78;;;1.80;;
40150;SDS011;25866;52.420;10.640;2023-05-19T08:29:00;4.97;;;1.98;;
40150;SDS011;25866;52.420;10.640;2023-05-19T08:31:26;6.38;;;1.75;;
40150;SDS011;25866;52.420;10.640;2023-05-19T08:33:51;5.43;;;1.75;;
40150;SDS011;25866;52.420;10.640;2023-05-19T08:36:18;3.28;;;1.55;;
40150;SDS011;25866;52.420;10.640;2023-05-19T08:38:45;7.85;;;1.92;;
40150;SDS011;25866;52.420;10.640;2023-05-19T08:41:11;3.53;;;1.58;;
40150;SDS011;25866;52.420;10.640;2023-05-19T08:43:37;4.97;;;2.20;;
40150;SDS011;25866;52.420;10.640;2023-05-19T08:46:04;7.60;;;1.70;;
40150;SDS011;25866;52.420;10.640;2023-05-19T08:48:32;4.60;;;1.75;;
40150;SDS011;25866;52.420;10.640;2023-05-19T08:51:17;4.03;;;1.90;;
40150;SDS011;25866;52.420;10.640;2023-05-19T08:53:52;3.92;;;1.63;;
40150;SDS011;25866;52.420;10.640;2023-05-19T08:56:24;4.82;;;1.40;;
40150;SDS011;25866;52.420;10.640;2023-05-19T08:58:51;5.00;;;1.52;;
40150;SDS011;25866;52.420;10.640;2023-05-19T09:01:20;2.42;;;1.48;;
40150;SDS011;25866;52.420;10.640;2023-05-19T09:03:47;4.20;;;1.60;;
40150;SDS011;25866;52.420;10.640;2023-05-19T09:06:14;5.15;;;1.98;;
40150;SDS011;25866;52.420;10.640;2023-05-19T09:08:41;6.68;;;1.58;;
40150;SDS011;25866;52.420;10.640;2023-05-19T09:11:07;4.72;;;1.58;;
40150;SDS011;25866;52.420;10.640;2023-05-19T09:13:34;2.80;;;1.10;;
40150;SDS011;25866;52.420;10.640;2023-05-19T09:16:00;4.00;;;1.45;;
40150;SDS011;25866;52.420;10.640;2023-05-19T09:18:27;7.13;;;1.77;;
40150;SDS011;25866;52.420;10.640;2023-05-19T09:20:57;4.40;;;1.48;;
40150;SDS011;25866;52.420;10.640;2023-05-19T09:23:28;3.67;;;1.65;;
40150;SDS011;25866;52.420;10.640;2023-05-19T09:25:56;3.78;;;1.33;;
40150;SDS011;25866;52.420;10.640;2023-05-19T09:28:25;5.10;;;1.40;;
40150;SDS011;25866;52.420;10.640;2023-05-19T09:31:15;3.83;;;1.23;;
40150;SDS011;25866;52.420;10.640;2023-05-19T09:33:41;3.55;;;1.40;;
40150;SDS011;25866;52.420;10.640;2023-05-19T09:36:07;4.05;;;1.30;;
40150;SDS011;25866;52.420;10.640;2023-05-19T09:38:35;2.00;;;1.15;;
40150;SDS011;25866;52.420;10.640;2023-05-19T09:41:02;6.60;;;1.48;;
40150;SDS011;25866;52.420;10.640;2023-05-19T09:43:29;3.70;;;1.60;;
40150;SDS011;25866;52.420;10.640;2023-05-19T09:48:32;3.92;;;1.65;;
40150;SDS011;25866;52.420;10.640;2023-05-19T09:50:59;2.83;;;1.40;;
40150;SDS011;25866;52.420;10.640;2023-05-19T09:53:26;4.15;;;1.30;;
40150;SDS011;25866;52.420;10.640;2023-05-19T09:55:55;2.70;;;1.30;;
40150;SDS011;25866;52.420;10.640;2023-05-19T09:58:24;4.38;;;1.52;;
40150;SDS011;25866;52.420;10.640;2023-05-19T10:00:51;5.50;;;1.40;;
40150;SDS011;25866;52.420;10.640;2023-05-19T10:03:19;3.03;;;1.52;;
40150;SDS011;25866;52.420;10.640;2023-05-19T10:05:49;4.97;;;1.33;;
40150;SDS011;25866;52.420;10.640;2023-05-19T10:08:17;3.20;;;1.08;;
40150;SDS011;25866;52.420;10.640;2023-05-19T10:10:46;4.18;;;1.50;;
40150;SDS011;25866;52.420;10.640;2023-05-19T10:13:12;5.63;;;1.23;;
40150;SDS011;25866;52.420;10.640;2023-05-19T10:15:41;3.45;;;1.30;;
40150;SDS011;25866;52.420;10.640;2023-05-19T10:18:08;2.33;;;1.20;;
40150;SDS011;25866;52.420;10.640;2023-05-19T10:20:34;2.90;;;1.40;;
40150;SDS011;25866;52.420;10.640;2023-05-19T10:23:01;4.82;;;1.75;;
40150;SDS011;25866;52.420;10.640;2023-05-19T10:25:29;5.15;;;1.60;;
40150;SDS011;25866;52.420;10.640;2023-05-19T10:27:58;6.75;;;1.25;;
40150;SDS011;25866;52.420;10.640;2023-05-19T10:30:35;3.90;;;1.40;;
40150;SDS011;25866;52.420;10.640;2023-05-19T10:33:05;3.15;;;1.20;;
40150;SDS011;25866;52.420;10.640;2023-05-19T10:35:41;3.78;;;1.30;;
40150;SDS011;25866;52.420;10.640;2023-05-19T10:44:02;3.05;;;1.25;;
40150;SDS011;25866;52.420;10.640;2023-05-19T10:46:52;1.85;;;1.10;;
40150;SDS011;25866;52.420;10.640;2023-05-19T10:49:21;2.78;;;1.27;;
40150;SDS011;25866;52.420;10.640;2023-05-19T10:51:47;2.20;;;1.13;;
40150;SDS011;25866;52.420;10.640;2023-05-19T10:54:13;4.93;;;1.33;;
40150;SDS011;25866;52.420;10.640;2023-05-19T10:56:44;1.92;;;1.02;;
40150;SDS011;25866;52.420;10.640;2023-05-19T10:59:30;2.33;;;1.30;;
40150;SDS011;25866;52.420;10.640;2023-05-19T11:02:02;3.28;;;1.63;;
40150;SDS011;25866;52.420;10.640;2023-05-19T11:04:48;2.40;;;1.38;;
40150;SDS011;25866;52.420;10.640;2023-05-19T11:07:18;2.17;;;1.02;;
40150;SDS011;25866;52.420;10.640;2023-05-19T11:09:49;3.50;;;1.30;;
40150;SDS011;25866;52.420;10.640;2023-05-19T11:12:22;3.33;;;1.25;;
40150;SDS011;25866;52.420;10.640;2023-05-19T11:14:51;4.30;;;1.20;;
40150;SDS011;25866;52.420;10.640;2023-05-19T11:17:18;4.65;;;1.35;;
40150;SDS011;25866;52.420;10.640;2023-05-19T11:19:54;2.88;;;1.02;;
40150;SDS011;25866;52.420;10.640;2023-05-19T11:22:21;3.63;;;1.35;;
40150;SDS011;25866;52.420;10.640;2023-05-19T11:24:49;1.48;;;0.98;;
40150;SDS011;25866;52.420;10.640;2023-05-19T11:27:30;1.95;;;1.15;;
40150;SDS011;25866;52.420;10.640;2023-05-19T11:29:58;1.80;;;1.20;;
40150;SDS011;25866;52.420;10.640;2023-05-19T11:32:27;2.15;;;0.88;;
40150;SDS011;25866;52.420;10.640;2023-05-19T11:34:54;3.10;;;1.50;;
40150;SDS011;25866;52.420;10.640;2023-05-19T11:37:22;2.67;;;0.98;;
40150;SDS011;25866;52.420;10.640;2023-05-19T11:39:48;4.22;;;1.20;;
40150;SDS011;25866;52.420;10.640;2023-05-19T11:42:14;2.90;;;1.17;;
40150;SDS011;25866;52.420;10.640;2023-05-19T11:44:41;2.72;;;1.20;;
40150;SDS011;25866;52.420;10.640;2023-05-19T11:47:10;1.77;;;1.10;;
40150;SDS011;25866;52.420;10.640;2023-05-19T11:49:37;4.75;;;1.33;;
40150;SDS011;25866;52.420;10.640;2023-05-19T11:52:03;1.67;;;1.13;;
40150;SDS011;25866;52.420;10.640;2023-05-19T11:54:31;4.47;;;1.08;;
40150;SDS011;25866;52.420;10.640;2023-05-19T11:57:01;4.38;;;1.17;;
40150;SDS011;25866;52.420;10.640;2023-05-19T12:01:59;4.95;;;1.42;;
40150;SDS011;25866;52.420;10.640;2023-05-19T12:04:27;3.53;;;1.20;;
40150;SDS011;25866;52.420;10.640;2023-05-19T12:06:53;2.17;;;1.05;;
40150;SDS011;25866;52.420;10.640;2023-05-19T12:09:21;3.58;;;1.20;;
40150;SDS011;25866;52.420;10.640;2023-05-19T12:11:48;3.38;;;1.13;;
40150;SDS011;25866;52.420;10.640;2023-05-19T12:14:15;1.95;;;1.05;;
40150;SDS011;25866;52.420;10.640;2023-05-19T12:16:42;1.13;;;1.00;;
40150;SDS011;25866;52.420;10.640;2023-05-19T12:19:07;1.83;;;1.10;;
40150;SDS011;25866;52.420;10.640;2023-05-19T12:21:33;3.63;;;1.10;;
40150;SDS011;25866;52.420;10.640;2023-05-19T12:24:00;2.17;;;1.10;;
40150;SDS011;25866;52.420;10.640;2023-05-19T12:26:26;1.90;;;1.10;;
40150;SDS011;25866;52.420;10.640;2023-05-19T12:28:52;1.30;;;0.80;;
40150;SDS011;25866;52.420;10.640;2023-05-19T12:31:18;2.33;;;1.23;;
40150;SDS011;25866;52.420;10.640;2023-05-19T12:33:47;2.80;;;1.25;;
40150;SDS011;25866;52.420;10.640;2023-05-19T12:36:16;1.17;;;1.02;;
40150;SDS011;25866;52.420;10.640;2023-05-19T12:38:43;2.78;;;1.08;;
40150;SDS011;25866;52.420;10.640;2023-05-19T12:41:10;1.48;;;1.08;;
40150;SDS011;25866;52.420;10.640;2023-05-19T12:43:39;4.88;;;1.58;;
40150;SDS011;25866;52.420;10.640;2023-05-19T12:46:11;4.82;;;1.30;;
40150;SDS011;25866;52.420;10.640;2023-05-19T12:48:44;1.75;;;1.20;;
40150;SDS011;25866;52.420;10.640;2023-05-19T12:51:20;2.67;;;1.30;;
40150;SDS011;25866;52.420;10.640;2023-05-19T12:53:46;1.75;;;1.00;;
40150;SDS011;25866;52.420;10.640;2023-05-19T12:56:13;1.50;;;0.90;;
40150;SDS011;25866;52.420;10.640;2023-05-19T12:58:41;2.65;;;1.30;;
40150;SDS011;25866;52.420;10.640;2023-05-19T13:01:13;2.13;;;1.13;;
40150;SDS011;25866;52.420;10.640;2023-05-19T13:03:40;2.13;;;1.10;;
40150;SDS011;25866;52.420;10.640;2023-05-19T13:06:06;4.05;;;1.30;;
40150;SDS011;25866;52.420;10.640;2023-05-19T13:08:33;3.05;;;1.27;;
40150;SDS011;25866;52.420;10.640;2023-05-19T13:10:59;1.65;;;1.10;;
40150;SDS011;25866;52.420;10.640;2023-05-19T13:13:25;2.47;;;1.02;;
40150;SDS011;25866;52.420;10.640;2023-05-19T13:15:51;4.47;;;1.20;;
40150;SDS011;25866;52.420;10.640;2023-05-19T13:18:18;2.00;;;0.95;;
40150;SDS011;25866;52.420;10.640;2023-05-19T13:20:45;5.65;;;1.00;;
40150;SDS011;25866;52.420;10.640;2023-05-19T13:23:13;4.55;;;1.10;;
40150;SDS011;25866;52.420;10.640;2023-05-19T13:25:39;3.13;;;1.65;;
40150;SDS011;25866;52.420;10.640;2023-05-19T13:28:06;2.45;;;1.38;;
40150;SDS011;25866;52.420;10.640;2023-05-19T13:30:35;2.60;;;0.95;;
40150;SDS011;25866;52.420;10.640;2023-05-19T13:33:03;2.03;;;1.23;;
40150;SDS011;25866;52.420;10.640;2023-05-19T13:35:29;3.47;;;1.10;;
40150;SDS011;25866;52.420;10.640;2023-05-19T13:38:02;1.63;;;1.48;;
40150;SDS011;25866;52.420;10.640;2023-05-19T13:40:29;5.43;;;1.85;;
40150;SDS011;25866;52.420;10.640;2023-05-19T13:42:57;1.92;;;1.00;;
40150;SDS011;25866;52.420;10.640;2023-05-19T13:45:23;2.33;;;1.42;;
40150;SDS011;25866;52.420;10.640;2023-05-19T13:47:49;4.25;;;1.48;;
40150;SDS011;25866;52.420;10.640;2023-05-19T13:50:14;3.65;;;1.65;;
40150;SDS011;25866;52.420;10.640;2023-05-19T13:52:40;2.40;;;1.40;;
40150;SDS011;25866;52.420;10.640;2023-05-19T13:55:06;1.48;;;1.20;;
40150;SDS011;25866;52.420;10.640;2023-05-19T13:57:32;1.90;;;1.00;;
40150;SDS011;25866;52.420;10.640;2023-05-19T13:59:59;4.22;;;1.17;;
40150;SDS011;25866;52.420;10.640;2023-05-19T14:02:25;3.03;;;0.98;;
40150;SDS011;25866;52.420;10.640;2023-05-19T14:04:50;3.13;;;1.13;;
40150;SDS011;25866;52.420;10.640;2023-05-19T14:07:16;3.78;;;1.40;;
40150;SDS011;25866;52.420;10.640;2023-05-19T14:09:42;2.33;;;1.13;;
40150;SDS011;25866;52.420;10.640;2023-05-19T14:12:07;5.13;;;1.60;;
40150;SDS011;25866;52.420;10.640;2023-05-19T14:14:36;1.50;;;1.30;;
40150;SDS011;25866;52.420;10.640;2023-05-19T14:17:02;3.47;;;1.10;;
40150;SDS011;25866;52.420;10.640;2023-05-19T14:19:28;1.83;;;1.15;;
40150;SDS011;25866;52.420;10.640;2023-05-19T14:21:54;2.72;;;1.10;;
40150;SDS011;25866;52.420;10.640;2023-05-19T14:24:21;1.92;;;1.10;;
40150;SDS011;25866;52.420;10.640;2023-05-19T14:26:47;3.03;;;1.20;;
40150;SDS011;25866;52.420;10.640;2023-05-19T14:29:13;1.95;;;1.17;;
40150;SDS011;25866;52.420;10.640;2023-05-19T14:31:39;3.40;;;1.25;;
40150;SDS011;25866;52.420;10.640;2023-05-19T14:34:05;3.80;;;1.20;;
40150;SDS011;25866;52.420;10.640;2023-05-19T14:36:30;5.85;;;1.30;;
40150;SDS011;25866;52.420;10.640;2023-05-19T14:38:59;4.20;;;1.35;;
40150;SDS011;25866;52.420;10.640;2023-05-19T14:41:25;5.18;;;1.25;;
40150;SDS011;25866;52.420;10.640;2023-05-19T14:43:51;2.90;;;1.00;;
40150;SDS011;25866;52.420;10.640;2023-05-19T14:46:17;2.45;;;1.05;;
40150;SDS011;25866;52.420;10.640;2023-05-19T14:48:43;4.32;;;1.10;;
40150;SDS011;25866;52.420;10.640;2023-05-19T14:51:08;1.52;;;1.05;;
40150;SDS011;25866;52.420;10.640;2023-05-19T14:53:34;3.58;;;1.00;;
40150;SDS011;25866;52.420;10.640;2023-05-19T14:56:00;1.42;;;0.93;;
40150;SDS011;25866;52.420;10.640;2023-05-19T14:58:26;2.55;;;1.20;;
40150;SDS011;25866;52.420;10.640;2023-05-19T15:00:51;2.90;;;1.17;;
40150;SDS011;25866;52.420;10.640;2023-05-19T15:03:17;1.75;;;1.10;;
40150;SDS011;25866;52.420;10.640;2023-05-19T15:05:43;2.55;;;0.93;;